createdAt,value
2022-10-18T00:00:13.739Z,62.77
2022-10-18T00:02:56.944Z,63.35
2022-10-18T00:05:40.542Z,64.17
2022-10-18T00:08:23.586Z,63.79
2022-10-18T00:11:07.172Z,63.86
2022-10-18T00:13:51.546Z,63.82
2022-10-18T00:16:34.551Z,64.86
2022-10-18T00:19:17.793Z,64.61
2022-10-18T00:22:00.757Z,64.77
2022-10-18T00:24:43.817Z,65.21
2022-10-18T00:27:26.806Z,64.65
2022-10-18T00:30:11.911Z,65.68
2022-10-18T00:32:54.905Z,65.22
2022-10-18T00:35:37.906Z,66.04
2022-10-18T00:38:20.911Z,66.38
2022-10-18T00:41:05.090Z,65.94
2022-10-18T00:43:53.352Z,65.96
2022-10-18T00:46:39.633Z,66.81
2022-10-18T00:49:25.002Z,67.66
2022-10-18T00:52:10.638Z,67.93
2022-10-18T00:54:54.930Z,67.42
2022-10-18T00:57:39.489Z,68.67
2022-10-18T01:00:22.812Z,68.63
2022-10-18T01:03:07.852Z,68.46
2022-10-18T01:05:51.134Z,68.56
2022-10-18T01:08:48.082Z,69.62
2022-10-18T01:11:49.664Z,68.96
2022-10-18T01:14:44.163Z,69.68
2022-10-18T01:17:33.252Z,69.59
2022-10-18T01:20:44.922Z,69.44
2022-10-18T01:23:45.098Z,69.55
2022-10-18T01:26:47.681Z,69.96
2022-10-18T01:29:40.257Z,70.21
2022-10-18T01:32:28.238Z,70.00
2022-10-18T01:35:16.494Z,71.18
2022-10-18T01:38:03.733Z,71.25
2022-10-18T01:40:50.591Z,71.81
2022-10-18T01:43:35.622Z,71.33
2022-10-18T01:46:23.549Z,72.35
2022-10-18T01:49:08.446Z,72.35
2022-10-18T01:51:51.450Z,72.22
2022-10-18T01:54:38.579Z,73.33
2022-10-18T01:57:30.054Z,73.41
2022-10-18T02:00:16.133Z,73.42
2022-10-18T02:03:05.488Z,72.95
2022-10-18T02:05:58.157Z,73.01
2022-10-18T02:08:48.241Z,74.07
2022-10-18T02:11:33.602Z,74.45
2022-10-18T02:14:21.455Z,74.07
2022-10-18T02:17:09.191Z,72.82
2022-10-18T02:19:56.915Z,73.01
2022-10-18T02:22:43.722Z,72.65
2022-10-18T02:25:29.926Z,72.17
2022-10-18T02:28:13.007Z,73.42
2022-10-18T02:31:04.512Z,73.29
2022-10-18T02:33:53.623Z,72.54
2022-10-18T02:36:42.234Z,72.77
2022-10-18T02:39:30.521Z,73.45
2022-10-18T02:42:14.821Z,73.07
2022-10-18T02:44:57.814Z,73.66
2022-10-18T02:47:40.853Z,73.26
2022-10-18T02:50:23.844Z,73.54
2022-10-18T02:53:06.894Z,74.32
2022-10-18T02:55:51.274Z,74.31
2022-10-18T02:58:34.232Z,73.85
2022-10-18T03:01:17.274Z,73.48
2022-10-18T03:04:00.353Z,73.86
2022-10-18T03:06:43.386Z,74.24
2022-10-18T03:09:26.567Z,74.85
2022-10-18T03:12:10.930Z,74.79
2022-10-18T03:14:53.923Z,74.09
2022-10-18T03:17:36.975Z,74.17
2022-10-18T03:20:19.974Z,74.28
2022-10-18T03:23:03.406Z,74.31
2022-10-18T03:25:46.845Z,74.46
2022-10-18T03:28:31.368Z,74.30
2022-10-18T03:31:14.446Z,75.36
2022-10-18T03:33:57.451Z,75.31
2022-10-18T03:36:41.426Z,76.73
2022-10-18T03:39:24.497Z,76.60
2022-10-18T03:42:07.448Z,75.79
2022-10-18T03:44:51.852Z,76.80
2022-10-18T03:47:35.022Z,76.12
2022-10-18T03:50:18.220Z,76.03
2022-10-18T03:53:01.220Z,75.22
2022-10-18T03:55:44.355Z,76.83
2022-10-18T03:58:27.484Z,76.26
2022-10-18T04:01:12.151Z,75.66
2022-10-18T04:03:55.204Z,77.41
2022-10-18T04:06:38.248Z,77.89
2022-10-18T04:09:21.465Z,77.40
2022-10-18T04:12:04.478Z,77.55
2022-10-18T04:14:47.484Z,77.08
2022-10-18T04:17:32.104Z,77.75
2022-10-18T04:20:15.531Z,77.06
2022-10-18T04:22:58.594Z,77.03
2022-10-18T04:28:30.847Z,77.54
2022-10-18T04:31:14.049Z,77.61
2022-10-18T04:33:58.451Z,77.95
2022-10-18T04:36:41.450Z,77.54
2022-10-18T04:39:24.480Z,78.36
2022-10-18T04:42:07.543Z,78.36
2022-10-18T04:44:50.550Z,77.99
2022-10-18T04:47:33.835Z,78.81
2022-10-18T04:50:18.646Z,77.64
2022-10-18T04:53:01.654Z,79.02
2022-10-18T04:55:46.697Z,78.30
2022-10-18T04:58:29.747Z,78.97
2022-10-18T05:01:12.941Z,78.50
2022-10-18T05:03:56.155Z,77.17
2022-10-18T05:06:40.592Z,77.38
2022-10-18T05:09:24.876Z,77.07
2022-10-18T05:12:07.863Z,76.55
2022-10-18T05:14:50.854Z,77.39
2022-10-18T05:17:33.876Z,77.50
2022-10-18T05:20:17.020Z,77.35
2022-10-18T05:23:01.411Z,76.93
2022-10-18T05:25:44.709Z,76.68
2022-10-18T05:28:39.576Z,75.30
2022-10-18T05:31:23.293Z,75.72
2022-10-18T05:34:06.336Z,74.17
2022-10-18T05:36:50.151Z,74.29
2022-10-18T05:39:34.530Z,74.27
2022-10-18T05:42:17.500Z,73.81
2022-10-18T05:45:00.473Z,74.08
2022-10-18T05:47:43.426Z,72.85
2022-10-18T05:50:26.429Z,72.38
2022-10-18T05:53:12.446Z,70.50
2022-10-18T05:56:11.882Z,69.94
2022-10-18T05:58:54.963Z,67.90
2022-10-18T06:01:38.071Z,64.62
2022-10-18T06:04:21.170Z,62.41
2022-10-18T06:07:04.657Z,63.97
2022-10-18T06:09:47.657Z,64.06
2022-10-18T06:12:32.032Z,64.97
2022-10-18T06:15:15.143Z,65.35
2022-10-18T06:17:59.593Z,63.17
2022-10-18T06:20:42.666Z,63.30
2022-10-18T06:23:25.668Z,52.70
2022-10-18T06:26:11.596Z,41.16
2022-10-18T06:28:56.071Z,33.58
2022-10-18T06:31:39.082Z,32.85
2022-10-18T06:34:22.179Z,31.14
2022-10-18T06:37:05.215Z,29.49
2022-10-18T06:39:48.189Z,28.03
2022-10-18T06:42:31.883Z,26.92
2022-10-18T06:45:18.355Z,25.98
2022-10-18T06:48:01.359Z,26.42
2022-10-18T06:50:51.507Z,28.79
2022-10-18T06:53:43.806Z,27.39
2022-10-18T06:56:31.869Z,25.99
2022-10-18T06:59:15.316Z,24.80
2022-10-18T07:01:59.759Z,24.91
2022-10-18T07:04:42.769Z,25.34
2022-10-18T07:07:25.877Z,24.84
2022-10-18T07:10:12.937Z,21.56
2022-10-18T07:13:13.676Z,20.18
2022-10-18T07:16:04.423Z,20.52
2022-10-18T07:18:50.765Z,19.37
2022-10-18T07:21:33.762Z,19.35
2022-10-18T07:24:16.959Z,21.12
2022-10-18T07:26:59.930Z,21.69
2022-10-18T07:29:42.905Z,21.34
2022-10-18T07:32:25.877Z,19.05
2022-10-18T07:37:57.474Z,19.84
2022-10-18T07:40:40.474Z,18.16
2022-10-18T07:43:23.441Z,16.35
2022-10-18T07:46:06.991Z,16.44
2022-10-18T07:48:50.396Z,14.98
2022-10-18T07:51:36.112Z,12.56
2022-10-18T07:54:19.292Z,14.49
2022-10-18T07:57:02.424Z,18.01
2022-10-18T07:59:48.056Z,15.84
2022-10-18T08:02:31.058Z,15.91
2022-10-18T08:05:14.116Z,14.77
2022-10-18T08:07:58.542Z,15.67
2022-10-18T08:10:41.520Z,15.28
2022-10-18T08:13:24.511Z,14.96
2022-10-18T08:16:09.444Z,12.88
2022-10-18T08:18:52.752Z,10.84
2022-10-18T08:21:35.707Z,11.25
2022-10-18T08:24:20.060Z,12.63
2022-10-18T08:27:03.300Z,10.96
2022-10-18T08:29:46.338Z,11.13
2022-10-18T08:32:29.592Z,9.96
2022-10-18T08:35:14.811Z,11.41
2022-10-18T08:37:57.827Z,10.78
2022-10-18T08:40:45.576Z,10.23
2022-10-18T08:43:37.317Z,10.34
2022-10-18T08:46:20.396Z,9.24
2022-10-18T08:49:04.783Z,10.36
2022-10-18T08:51:50.510Z,9.97
2022-10-18T08:54:38.855Z,8.82
2022-10-18T08:57:23.571Z,8.11
2022-10-18T09:00:15.929Z,7.77
2022-10-18T09:03:14.245Z,7.57
2022-10-18T09:06:05.737Z,7.58
2022-10-18T09:09:03.213Z,7.90
2022-10-18T09:12:01.069Z,8.95
2022-10-18T09:15:10.100Z,12.86
2022-10-18T09:18:09.042Z,11.85
2022-10-18T09:20:57.715Z,10.72
2022-10-18T09:23:48.445Z,12.23
2022-10-18T09:26:39.093Z,14.55
2022-10-18T09:29:41.369Z,19.92
2022-10-18T09:32:37.463Z,21.26
2022-10-18T09:35:24.957Z,20.69
2022-10-18T09:38:14.341Z,17.08
2022-10-18T09:41:01.299Z,13.58
2022-10-18T09:43:51.814Z,11.87
2022-10-18T09:46:39.921Z,10.10
2022-10-18T09:49:29.482Z,9.69
2022-10-18T09:52:29.355Z,8.97
2022-10-18T09:55:20.243Z,9.80
2022-10-18T09:58:08.665Z,10.08
2022-10-18T10:00:54.010Z,9.87
2022-10-18T10:03:37.111Z,8.05
2022-10-18T10:06:29.332Z,9.40
2022-10-18T10:09:17.840Z,6.80
2022-10-18T10:12:00.884Z,6.68
2022-10-18T10:14:45.455Z,6.82
2022-10-18T10:17:35.985Z,7.62
2022-10-18T10:20:22.440Z,8.54
2022-10-18T10:26:03.950Z,6.42
2022-10-18T10:28:49.099Z,6.17
2022-10-18T10:31:33.048Z,8.32
2022-10-18T10:34:21.853Z,7.51
2022-10-18T10:37:05.611Z,6.31
2022-10-18T10:40:18.363Z,6.37
2022-10-18T10:43:18.465Z,5.62
2022-10-18T10:46:11.961Z,5.63
2022-10-18T10:49:21.007Z,5.60
2022-10-18T10:52:26.829Z,5.43
2022-10-18T10:55:34.928Z,4.56
2022-10-18T10:58:19.512Z,3.85
2022-10-18T11:01:20.305Z,4.92
2022-10-18T11:04:10.764Z,4.41
2022-10-18T11:07:08.121Z,4.83
2022-10-18T11:09:59.622Z,4.72
2022-10-18T11:12:46.323Z,4.86
2022-10-18T11:15:36.453Z,4.89
2022-10-18T11:18:23.769Z,4.93
2022-10-18T11:21:11.521Z,5.41
2022-10-18T11:23:54.927Z,5.54
2022-10-18T11:26:50.005Z,7.31
2022-10-18T11:29:54.358Z,9.68
2022-10-18T11:32:46.927Z,11.58
2022-10-18T11:35:40.543Z,12.78
2022-10-18T11:38:35.941Z,14.96
2022-10-18T11:41:32.253Z,15.94
2022-10-18T11:44:23.795Z,16.67
2022-10-18T11:47:16.616Z,17.51
2022-10-18T11:50:09.672Z,18.77
2022-10-18T11:53:03.558Z,17.31
2022-10-18T11:55:57.999Z,17.70
2022-10-18T11:58:54.706Z,18.13
2022-10-18T12:01:42.341Z,17.96
2022-10-18T12:04:33.732Z,19.29
2022-10-18T12:07:23.386Z,18.76
2022-10-18T12:10:22.962Z,18.54
2022-10-18T12:13:23.055Z,18.60
2022-10-18T12:16:09.235Z,19.34
2022-10-18T12:18:55.937Z,19.18
2022-10-18T12:21:40.629Z,18.81
2022-10-18T12:24:28.751Z,18.57
2022-10-18T12:27:15.930Z,17.57
2022-10-18T12:30:04.805Z,17.59
2022-10-18T12:33:02.220Z,18.23
2022-10-18T12:36:01.617Z,18.16
2022-10-18T12:38:48.856Z,17.70
2022-10-18T12:41:33.990Z,18.20
2022-10-18T12:44:22.352Z,18.46
2022-10-18T12:47:07.582Z,18.13
2022-10-18T12:49:58.392Z,18.51
2022-10-18T12:52:42.146Z,18.21
2022-10-18T12:55:34.907Z,17.95
2022-10-18T12:58:28.417Z,17.99
2022-10-18T13:01:11.489Z,19.21
2022-10-18T13:03:58.687Z,19.54
2022-10-18T13:07:18.153Z,19.01
2022-10-18T13:10:40.539Z,18.85
2022-10-18T13:13:50.700Z,18.80
2022-10-18T13:16:43.461Z,18.93
2022-10-18T13:19:33.095Z,18.92
2022-10-18T13:22:30.595Z,18.89
2022-10-18T13:25:22.641Z,19.43
2022-10-18T13:28:22.761Z,18.31
2022-10-18T13:31:20.392Z,18.60
2022-10-18T13:34:25.205Z,18.69
2022-10-18T13:37:23.861Z,18.91
2022-10-18T13:40:23.855Z,18.51
2022-10-18T13:43:40.074Z,18.76
2022-10-18T13:46:26.075Z,18.91
2022-10-18T13:49:31.874Z,19.01
2022-10-18T13:52:25.960Z,19.21
2022-10-18T13:55:33.255Z,19.08
2022-10-18T13:58:23.539Z,19.19
2022-10-18T14:01:20.357Z,19.24
2022-10-18T14:04:27.832Z,19.40
2022-10-18T14:07:12.976Z,19.58
2022-10-18T14:10:01.814Z,19.65
2022-10-18T14:12:54.733Z,19.62
2022-10-18T14:15:40.802Z,19.66
2022-10-18T14:18:31.821Z,19.63
2022-10-18T14:21:28.759Z,19.60
2022-10-18T14:24:22.512Z,20.06
2022-10-18T14:27:14.039Z,20.32
2022-10-18T14:30:15.997Z,20.08
2022-10-18T14:32:59.648Z,20.00
2022-10-18T14:35:42.745Z,19.98
2022-10-18T14:38:27.307Z,20.23
2022-10-18T14:41:17.136Z,20.48
2022-10-18T14:44:19.438Z,20.44
2022-10-18T14:47:04.493Z,20.60
2022-10-18T14:49:47.774Z,20.86
2022-10-18T14:52:35.693Z,21.18
2022-10-18T14:55:24.654Z,20.90
2022-10-18T14:58:15.591Z,21.10
2022-10-18T15:00:59.708Z,21.62
2022-10-18T15:03:42.856Z,22.67
2022-10-18T15:06:26.410Z,21.53
2022-10-18T15:09:12.464Z,22.12
2022-10-18T15:11:58.053Z,23.96
2022-10-18T15:14:42.353Z,22.45
2022-10-18T15:17:27.491Z,23.16
2022-10-18T15:20:21.964Z,23.67
2022-10-18T15:23:23.293Z,23.60
2022-10-18T15:26:09.229Z,24.84
2022-10-18T15:28:58.703Z,26.33
2022-10-18T15:31:44.565Z,27.31
2022-10-18T15:34:28.566Z,28.18
2022-10-18T15:37:29.524Z,28.85
2022-10-18T15:40:34.817Z,29.33
2022-10-18T15:43:40.046Z,29.61
2022-10-18T15:46:33.505Z,29.85
2022-10-18T15:49:56.793Z,30.38
2022-10-18T15:52:41.707Z,30.60
2022-10-18T15:55:48.606Z,31.11
2022-10-18T15:58:39.175Z,31.51
2022-10-18T16:01:28.214Z,31.82
2022-10-18T16:04:19.748Z,31.82
2022-10-18T16:07:02.866Z,32.12
2022-10-18T16:09:45.898Z,33.24
2022-10-18T16:12:28.935Z,33.44
2022-10-18T16:15:12.114Z,33.81
2022-10-18T16:17:55.098Z,34.08
2022-10-18T16:20:39.569Z,34.74
2022-10-18T16:23:24.334Z,34.71
2022-10-18T16:26:07.294Z,35.59
2022-10-18T16:28:50.999Z,35.71
2022-10-18T16:31:35.487Z,35.35
2022-10-18T16:34:18.634Z,36.12
2022-10-18T16:37:03.058Z,35.72
2022-10-18T16:39:46.062Z,36.08
2022-10-18T16:42:29.100Z,36.03
2022-10-18T16:45:12.118Z,36.30
2022-10-18T16:47:55.125Z,35.87
2022-10-18T16:50:38.130Z,37.18
2022-10-18T16:53:24.123Z,38.04
2022-10-18T16:56:12.946Z,37.90
2022-10-18T16:58:56.773Z,37.34
2022-10-18T17:01:39.822Z,38.07
2022-10-18T17:04:22.852Z,37.66
2022-10-18T17:07:06.053Z,38.11
2022-10-18T17:09:50.474Z,38.49
2022-10-18T17:12:33.754Z,38.97
2022-10-18T17:15:16.950Z,39.38
2022-10-18T17:18:01.182Z,39.23
2022-10-18T17:20:45.086Z,39.27
2022-10-18T17:23:28.099Z,39.56
2022-10-18T17:26:28.381Z,39.86
2022-10-18T17:29:12.300Z,39.52
2022-10-18T17:31:55.426Z,40.17
2022-10-18T17:34:38.620Z,40.85
2022-10-18T17:37:21.776Z,40.78
2022-10-18T17:40:05.424Z,40.86
2022-10-18T17:42:49.825Z,40.95
2022-10-18T17:45:32.864Z,41.18
2022-10-18T17:48:15.905Z,41.18
2022-10-18T17:50:59.227Z,41.22
2022-10-18T17:53:42.219Z,41.68
2022-10-18T17:56:27.194Z,41.69
2022-10-18T17:59:11.547Z,41.42
2022-10-18T18:01:54.566Z,41.47
2022-10-18T18:04:37.618Z,41.57
2022-10-18T18:07:20.648Z,41.26
2022-10-18T18:10:03.709Z,41.54
2022-10-18T18:12:46.861Z,41.64
2022-10-18T18:15:31.342Z,41.56
2022-10-18T18:18:14.354Z,41.22
2022-10-18T18:20:57.404Z,42.58
2022-10-18T18:23:40.631Z,41.89
2022-10-18T18:26:23.962Z,41.89
2022-10-18T18:29:07.030Z,42.37
2022-10-18T18:31:51.914Z,42.36
2022-10-18T18:34:36.680Z,42.64
2022-10-18T18:37:19.741Z,42.61
2022-10-18T18:40:02.744Z,42.46
2022-10-18T18:42:56.781Z,42.57
2022-10-18T18:45:52.740Z,42.67
2022-10-18T18:48:38.175Z,43.36
2022-10-18T18:51:24.462Z,43.69
2022-10-18T18:54:08.334Z,44.89
2022-10-18T18:56:51.357Z,45.31
2022-10-18T18:59:34.426Z,45.54
2022-10-18T19:02:17.427Z,46.00
2022-10-18T19:05:01.831Z,46.54
2022-10-18T19:07:44.806Z,46.36
2022-10-18T19:10:28.116Z,46.97
2022-10-18T19:13:11.970Z,47.24
2022-10-18T19:16:12.143Z,48.22
2022-10-18T19:18:59.936Z,49.27
2022-10-18T19:21:46.189Z,49.37
2022-10-18T19:24:31.093Z,49.87
2022-10-18T19:27:14.119Z,49.97
2022-10-18T19:29:57.086Z,50.93
2022-10-18T19:32:40.166Z,50.91
2022-10-18T19:35:23.219Z,50.45
2022-10-18T19:38:07.993Z,51.38
2022-10-18T19:40:53.754Z,51.80
2022-10-18T19:43:37.274Z,51.78
2022-10-18T19:46:20.335Z,51.88
2022-10-18T19:49:03.409Z,52.11
2022-10-18T19:51:46.849Z,52.20
2022-10-18T19:54:31.224Z,52.27
2022-10-18T19:57:14.261Z,53.00
2022-10-18T19:59:57.825Z,52.99
2022-10-18T20:02:41.389Z,53.13
2022-10-18T20:05:24.494Z,52.93
2022-10-18T20:08:07.543Z,53.56
2022-10-18T20:10:52.301Z,53.18
2022-10-18T20:13:36.031Z,53.14
2022-10-18T20:16:25.513Z,54.14
2022-10-18T20:19:11.934Z,53.13
2022-10-18T20:21:57.698Z,52.78
2022-10-18T20:24:40.700Z,51.80
2022-10-18T20:27:25.109Z,52.01
2022-10-18T20:30:11.260Z,52.09
2022-10-18T20:32:54.931Z,52.70
2022-10-18T20:35:37.965Z,52.19
2022-10-18T20:38:21.013Z,52.33
2022-10-18T20:41:06.057Z,52.36
2022-10-18T20:43:53.681Z,50.08
2022-10-18T20:46:38.219Z,49.83
2022-10-18T20:49:21.267Z,47.25
2022-10-18T20:52:04.338Z,46.43
2022-10-18T20:54:47.348Z,46.34
2022-10-18T20:57:34.194Z,46.17
2022-10-18T21:00:21.038Z,47.11
2022-10-18T21:03:04.600Z,46.38
2022-10-18T21:05:47.626Z,46.55
2022-10-18T21:08:30.725Z,46.53
2022-10-18T21:11:14.738Z,47.09
2022-10-18T21:14:00.292Z,47.87
2022-10-18T21:16:44.934Z,49.16
2022-10-18T21:19:28.235Z,49.30
2022-10-18T21:22:11.222Z,50.02
2022-10-18T21:24:54.171Z,49.32
2022-10-18T21:27:37.316Z,50.23
2022-10-18T21:30:20.278Z,49.74
2022-10-18T21:33:07.064Z,50.14
2022-10-18T21:35:50.036Z,50.64
2022-10-18T21:38:33.034Z,50.74
2022-10-18T21:41:17.910Z,51.50
2022-10-18T21:44:03.484Z,51.81
2022-10-18T21:46:48.580Z,52.12
2022-10-18T21:49:35.240Z,52.37
2022-10-18T21:52:18.234Z,53.04
2022-10-18T21:55:01.232Z,51.77
2022-10-18T21:57:44.239Z,51.90
2022-10-18T22:00:27.233Z,52.91
2022-10-18T22:03:10.729Z,52.02
2022-10-18T22:06:01.333Z,52.71
2022-10-18T22:08:46.563Z,53.07
2022-10-18T22:11:31.733Z,53.81
2022-10-18T22:14:14.947Z,54.06
2022-10-18T22:16:57.926Z,54.38
2022-10-18T22:19:40.921Z,54.22
2022-10-18T22:22:25.382Z,55.17
2022-10-18T22:25:09.202Z,54.86
2022-10-18T22:27:52.222Z,55.80
2022-10-18T22:30:38.063Z,56.51
2022-10-18T22:33:21.094Z,57.11
2022-10-18T22:36:04.134Z,57.09
2022-10-18T22:38:48.486Z,58.40
2022-10-18T22:41:31.475Z,58.02
2022-10-18T22:44:16.082Z,59.33
2022-10-18T22:46:59.104Z,59.45
2022-10-18T22:49:42.124Z,59.49
2022-10-18T22:52:25.130Z,59.52
2022-10-18T22:55:10.028Z,59.54
2022-10-18T22:57:53.084Z,59.86
2022-10-18T23:03:24.079Z,61.37
2022-10-18T23:06:19.753Z,61.41
2022-10-18T23:09:05.515Z,62.61
2022-10-18T23:11:51.170Z,62.49
2022-10-18T23:14:34.142Z,62.86
2022-10-18T23:17:17.228Z,62.64
2022-10-18T23:20:00.287Z,63.33
2022-10-18T23:22:43.361Z,62.88
2022-10-18T23:25:27.236Z,63.33
2022-10-18T23:28:11.675Z,63.26
2022-10-18T23:30:54.650Z,63.33
2022-10-18T23:33:37.977Z,63.68
2022-10-18T23:36:21.590Z,64.22
2022-10-18T23:39:06.282Z,64.26
2022-10-18T23:41:49.270Z,64.13
2022-10-18T23:44:33.676Z,64.21
2022-10-18T23:47:17.138Z,64.48
2022-10-18T23:50:00.135Z,64.12
2022-10-18T23:52:43.163Z,65.00
2022-10-18T23:55:26.311Z,65.23
2022-10-18T23:58:09.324Z,64.87
